Current Conditions
Mostly Clear
Conditions



Pressure
1021.92 (hPa) - 30.18 (inHG)
Visibility

6.2 (miles) - 10.0 (km)
Temperature
12  °C
Temperature
6  °C
Dewpoint
67  %
 Humidity
Wind Speed
1  mph
1  kts
2  km/h
0.4  m/s
Wind Direction
N
45°
E
90°
135°
S
180°
225°
W
270°
315°
 40°

North East
Airport Data
EGHI
Southampton Airport
Metar :EGHI 282050Z 04001KT CAVOK 12/06 Q1022
Sat 28th May 21:50 pm
Raw Metar Info
Raw METAR is the most common format in the world for the transmission of observational weather data. It is highly standardized through the International Civil Aviation Organization (ICAO), which allows it to be understood throughout most of the world.
API Info
Data Provided by
https://www.checkwx.com/weather/EGHI

Aviation Weather providing METAR, TAF, AIRMET, SIGMET and OUTLOOK Weather Reports
© Info
CSS/SVG/PHP scripts were developed by weather34.com for use in the weather34 template © 2015-2022

Guide Info provided by Metar-Wikipedia